createdAt,value
2023-01-27T00:00:55.689Z,14.70
2023-01-27T00:01:55.428Z,16.50
2023-01-27T00:02:55.755Z,21.50
2023-01-27T00:03:55.466Z,14.40
2023-01-27T00:04:55.552Z,16.50
2023-01-27T00:05:55.551Z,12.00
2023-01-27T00:06:55.619Z,16.10
2023-01-27T00:07:55.532Z,15.20
2023-01-27T00:08:55.580Z,17.60
2023-01-27T00:09:55.449Z,14.40
2023-01-27T00:10:55.518Z,12.00
2023-01-27T00:11:55.488Z,13.70
2023-01-27T00:12:55.610Z,13.60
2023-01-27T00:13:55.438Z,13.00
2023-01-27T00:14:55.561Z,15.60
2023-01-27T00:15:55.574Z,8.90
2023-01-27T00:16:55.272Z,9.20
2023-01-27T00:17:55.557Z,9.60
2023-01-27T00:18:55.513Z,12.00
2023-01-27T00:19:55.539Z,12.30
2023-01-27T00:20:55.296Z,8.40
2023-01-27T00:21:55.421Z,12.20
2023-01-27T00:22:55.322Z,12.30
2023-01-27T00:23:55.566Z,14.10
2023-01-27T00:24:55.311Z,14.10
2023-01-27T00:25:55.380Z,11.40
2023-01-27T00:26:55.289Z,10.90
2023-01-27T00:27:55.389Z,9.40
2023-01-27T00:28:55.350Z,8.00
2023-01-27T00:29:55.359Z,9.50
2023-01-27T00:30:55.358Z,8.90
2023-01-27T00:31:55.120Z,9.00
2023-01-27T00:32:55.329Z,13.30
2023-01-27T00:33:55.298Z,8.00
2023-01-27T00:34:55.288Z,7.30
2023-01-27T00:35:55.118Z,6.00
2023-01-27T00:36:55.381Z,6.50
2023-01-27T00:37:55.119Z,7.90
2023-01-27T00:38:55.338Z,6.40
2023-01-27T00:39:55.219Z,5.50
2023-01-27T00:40:55.260Z,6.70
2023-01-27T00:41:55.084Z,7.90
2023-01-27T00:42:55.258Z,7.20
2023-01-27T00:43:55.154Z,5.60
2023-01-27T00:44:55.239Z,7.60
2023-01-27T00:45:55.172Z,5.90
2023-01-27T00:46:55.255Z,5.80
2023-01-27T00:47:55.109Z,5.30
2023-01-27T00:48:54.998Z,7.50
2023-01-27T00:49:55.181Z,11.00
2023-01-27T00:50:55.079Z,5.70
2023-01-27T00:51:55.205Z,5.80
2023-01-27T00:52:54.963Z,8.20
2023-01-27T00:53:55.256Z,6.20
2023-01-27T00:54:55.148Z,3.90
2023-01-27T00:55:55.089Z,3.70
2023-01-27T00:56:54.952Z,4.60
2023-01-27T00:57:55.204Z,4.90
2023-01-27T00:58:54.959Z,5.50
2023-01-27T00:59:55.140Z,3.70
2023-01-27T01:00:55.040Z,4.10
2023-01-27T01:01:55.227Z,4.00
2023-01-27T01:02:55.015Z,5.00
2023-01-27T01:03:54.754Z,3.00
2023-01-27T01:04:55.040Z,7.20
2023-01-27T01:05:54.793Z,4.40
2023-01-27T01:06:55.088Z,7.90
2023-01-27T01:07:54.789Z,4.30
2023-01-27T01:08:54.980Z,6.20
2023-01-27T01:09:54.869Z,4.30
2023-01-27T01:10:54.911Z,4.50
2023-01-27T01:11:54.788Z,6.60
2023-01-27T01:12:55.042Z,4.00
2023-01-27T01:13:56.527Z,4.70
2023-01-27T01:14:54.936Z,4.40
2023-01-27T01:15:54.847Z,4.70
2023-01-27T01:16:54.885Z,3.90
2023-01-27T01:17:54.849Z,5.90
2023-01-27T01:18:54.854Z,4.80
2023-01-27T01:19:54.899Z,5.70
2023-01-27T01:20:54.658Z,4.30
2023-01-27T01:21:54.859Z,4.90
2023-01-27T01:22:54.648Z,5.90
2023-01-27T01:23:54.999Z,4.50
2023-01-27T01:24:54.637Z,4.50
2023-01-27T01:25:54.860Z,5.10
2023-01-27T01:26:54.628Z,4.90
2023-01-27T01:27:54.805Z,7.80
2023-01-27T01:28:54.691Z,3.70
2023-01-27T01:29:54.828Z,4.30
2023-01-27T01:30:54.791Z,4.80
2023-01-27T01:31:54.879Z,5.20
2023-01-27T01:32:54.681Z,4.80
2023-01-27T01:33:54.778Z,5.10
2023-01-27T01:34:54.778Z,4.80
2023-01-27T01:35:54.810Z,6.30
2023-01-27T01:36:54.600Z,3.90
2023-01-27T01:37:54.527Z,3.90
2023-01-27T01:38:54.668Z,5.70
2023-01-27T01:39:54.490Z,5.70
2023-01-27T01:40:54.659Z,4.00
2023-01-27T01:41:54.551Z,7.00
2023-01-27T01:42:54.650Z,5.10
2023-01-27T01:43:54.511Z,5.10
2023-01-27T01:44:54.689Z,6.10
2023-01-27T01:45:54.520Z,4.00
2023-01-27T01:46:54.620Z,7.10
2023-01-27T01:47:54.480Z,4.70
2023-01-27T01:48:54.646Z,5.10
2023-01-27T01:49:54.458Z,5.20
2023-01-27T01:50:54.742Z,4.70
2023-01-27T01:51:54.479Z,3.90
2023-01-27T01:52:54.370Z,5.10
2023-01-27T01:53:54.546Z,5.20
2023-01-27T01:54:54.375Z,4.50
2023-01-27T01:55:54.479Z,6.10
2023-01-27T01:56:54.410Z,6.00
2023-01-27T01:57:54.470Z,6.20
2023-01-27T01:58:54.307Z,4.20
2023-01-27T01:59:54.569Z,3.40
2023-01-27T02:00:54.413Z,4.20
2023-01-27T02:01:54.608Z,5.00
2023-01-27T02:02:54.479Z,6.80
2023-01-27T02:03:54.432Z,5.10
2023-01-27T02:04:54.334Z,3.60
2023-01-27T02:05:54.496Z,6.80
2023-01-27T02:06:54.349Z,5.10
2023-01-27T02:07:54.348Z,7.40
2023-01-27T02:08:54.358Z,5.20
2023-01-27T02:09:54.255Z,5.10
2023-01-27T02:10:54.505Z,5.30
2023-01-27T02:11:54.258Z,5.40
2023-01-27T02:12:54.326Z,5.30
2023-01-27T02:13:54.168Z,7.10
2023-01-27T02:14:54.341Z,5.20
2023-01-27T02:15:54.210Z,6.10
2023-01-27T02:16:54.507Z,5.00
2023-01-27T02:17:54.185Z,5.20
2023-01-27T02:18:54.267Z,6.90
2023-01-27T02:19:54.136Z,3.70
2023-01-27T02:20:54.202Z,4.00
2023-01-27T02:21:54.429Z,6.40
2023-01-27T02:22:54.279Z,5.60
2023-01-27T02:23:54.281Z,6.60
2023-01-27T02:24:53.998Z,5.40
2023-01-27T02:25:54.161Z,3.90
2023-01-27T02:26:54.000Z,4.90
2023-01-27T02:27:54.268Z,7.10
2023-01-27T02:28:54.020Z,5.10
2023-01-27T02:29:54.140Z,5.90
2023-01-27T02:30:54.080Z,5.90
2023-01-27T02:31:54.312Z,4.80
2023-01-27T02:32:54.089Z,6.80
2023-01-27T02:33:54.108Z,4.60
2023-01-27T02:34:54.000Z,5.10
2023-01-27T02:35:54.143Z,6.70
2023-01-27T02:36:53.989Z,6.30
2023-01-27T02:37:54.170Z,4.60
2023-01-27T02:38:54.058Z,7.10
2023-01-27T02:39:54.099Z,5.00
2023-01-27T02:40:54.008Z,5.40
2023-01-27T02:41:53.896Z,6.70
2023-01-27T02:42:54.059Z,7.20
2023-01-27T02:43:53.881Z,3.90
2023-01-27T02:44:54.057Z,4.90
2023-01-27T02:45:53.928Z,4.10
2023-01-27T02:46:54.029Z,6.80
2023-01-27T02:47:53.917Z,6.40
2023-01-27T02:48:54.118Z,5.60
2023-01-27T02:49:53.859Z,6.00
2023-01-27T02:50:54.018Z,7.10
2023-01-27T02:51:53.819Z,7.30
2023-01-27T02:52:53.969Z,5.40
2023-01-27T02:53:53.937Z,6.10
2023-01-27T02:54:53.950Z,8.50
2023-01-27T02:55:53.848Z,7.90
2023-01-27T02:56:53.868Z,6.70
2023-01-27T02:57:53.945Z,6.20
2023-01-27T02:58:53.774Z,7.70
2023-01-27T02:59:53.823Z,7.10
2023-01-27T03:00:53.819Z,7.40
2023-01-27T03:01:53.809Z,8.00
2023-01-27T03:02:53.807Z,6.30
2023-01-27T03:03:53.842Z,6.20
2023-01-27T03:04:53.692Z,8.00
2023-01-27T03:05:53.877Z,8.10
2023-01-27T03:06:53.738Z,8.20
2023-01-27T03:07:53.788Z,5.70
2023-01-27T03:08:53.788Z,6.70
2023-01-27T03:09:53.792Z,9.90
2023-01-27T03:10:53.813Z,6.30
2023-01-27T03:11:53.856Z,8.50
2023-01-27T03:12:53.759Z,9.10
2023-01-27T03:13:53.579Z,5.60
2023-01-27T03:14:53.908Z,6.30
2023-01-27T03:15:53.501Z,7.80
2023-01-27T03:16:53.759Z,7.20
2023-01-27T03:17:53.497Z,9.70
2023-01-27T03:18:53.894Z,7.40
2023-01-27T03:19:53.538Z,5.70
2023-01-27T03:20:53.631Z,7.80
2023-01-27T03:21:53.633Z,7.10
2023-01-27T03:22:53.602Z,8.30
2023-01-27T03:23:53.626Z,6.90
2023-01-27T03:24:53.594Z,9.50
2023-01-27T03:25:53.544Z,9.30
2023-01-27T03:26:53.589Z,7.80
2023-01-27T03:27:53.507Z,8.30
2023-01-27T03:28:53.647Z,10.20
2023-01-27T03:29:53.568Z,9.30
2023-01-27T03:30:53.409Z,8.10
2023-01-27T03:31:53.628Z,6.20
2023-01-27T03:32:53.369Z,8.70
2023-01-27T03:33:53.608Z,9.20
2023-01-27T03:34:53.382Z,10.00
2023-01-27T03:35:53.498Z,8.10
2023-01-27T03:36:53.426Z,7.50
2023-01-27T03:37:53.498Z,8.50
2023-01-27T03:38:53.598Z,11.10
2023-01-27T03:39:53.559Z,8.60
2023-01-27T03:40:53.390Z,7.70
2023-01-27T03:41:53.502Z,11.00
2023-01-27T03:42:53.358Z,9.40
2023-01-27T03:43:53.449Z,8.10
2023-01-27T03:44:53.407Z,9.50
2023-01-27T03:45:53.285Z,9.60
2023-01-27T03:46:53.388Z,8.80
2023-01-27T03:47:53.251Z,8.60
2023-01-27T03:48:53.359Z,8.70
2023-01-27T03:49:53.267Z,8.70
2023-01-27T03:50:53.373Z,9.10
2023-01-27T03:51:53.177Z,9.60
2023-01-27T03:52:53.318Z,6.80
2023-01-27T03:53:53.250Z,6.50
2023-01-27T03:54:53.410Z,9.50
2023-01-27T03:55:53.263Z,10.70
2023-01-27T03:56:53.338Z,8.60
2023-01-27T03:57:53.197Z,10.50
2023-01-27T03:58:53.278Z,9.80
2023-01-27T03:59:53.231Z,8.30
2023-01-27T04:00:53.276Z,9.30
2023-01-27T04:01:53.226Z,7.80
2023-01-27T04:02:53.095Z,8.30
2023-01-27T04:03:53.207Z,8.70
2023-01-27T04:04:53.039Z,5.40
2023-01-27T04:05:53.268Z,6.70
2023-01-27T04:06:53.010Z,6.70
2023-01-27T04:07:53.202Z,6.20
2023-01-27T04:08:53.127Z,9.00
2023-01-27T04:09:53.179Z,9.50
2023-01-27T04:10:53.150Z,6.90
2023-01-27T04:11:53.160Z,7.40
2023-01-27T04:12:53.156Z,8.40
2023-01-27T04:13:53.258Z,9.40
2023-01-27T04:14:53.017Z,5.50
2023-01-27T04:15:53.207Z,8.80
2023-01-27T04:16:53.038Z,7.60
2023-01-27T04:17:53.240Z,8.80
2023-01-27T04:18:52.998Z,9.10
2023-01-27T04:19:52.928Z,12.30
2023-01-27T04:20:53.124Z,7.70
2023-01-27T04:21:52.817Z,8.10
2023-01-27T04:22:53.060Z,11.40
2023-01-27T04:23:52.903Z,7.10
2023-01-27T04:24:53.148Z,6.80
2023-01-27T04:25:52.988Z,8.40
2023-01-27T04:26:53.049Z,9.70
2023-01-27T04:27:52.911Z,11.00
2023-01-27T04:28:53.060Z,6.30
2023-01-27T04:29:52.878Z,11.70
2023-01-27T04:30:52.993Z,9.50
2023-01-27T04:31:53.113Z,10.20
2023-01-27T04:32:52.938Z,12.70
2023-01-27T04:33:52.940Z,8.20
2023-01-27T04:34:52.759Z,10.20
2023-01-27T04:35:52.881Z,9.70
2023-01-27T04:36:52.881Z,9.90
2023-01-27T04:37:52.877Z,4.60
2023-01-27T04:38:52.667Z,8.20
2023-01-27T04:39:52.968Z,12.20
2023-01-27T04:40:52.737Z,8.40
2023-01-27T04:41:52.919Z,6.80
2023-01-27T04:42:52.717Z,7.10
2023-01-27T04:43:52.968Z,9.40
2023-01-27T04:44:52.710Z,11.20
2023-01-27T04:45:52.912Z,10.90
2023-01-27T04:46:52.778Z,10.70
2023-01-27T04:47:52.808Z,8.70
2023-01-27T04:48:52.755Z,6.50
2023-01-27T04:49:52.894Z,8.10
2023-01-27T04:50:52.761Z,8.20
2023-01-27T04:51:53.679Z,8.70
2023-01-27T04:52:52.777Z,9.30
2023-01-27T04:53:52.571Z,10.20
2023-01-27T04:54:52.758Z,8.80
2023-01-27T04:55:52.548Z,9.10
2023-01-27T04:56:52.745Z,8.30
2023-01-27T04:57:52.619Z,10.90
2023-01-27T04:58:52.768Z,8.30
2023-01-27T04:59:52.589Z,6.60
2023-01-27T05:00:52.658Z,9.00
2023-01-27T05:01:52.826Z,8.40
2023-01-27T05:02:52.703Z,11.20
2023-01-27T05:03:52.648Z,8.50
2023-01-27T05:04:52.668Z,9.40
2023-01-27T05:05:52.547Z,9.80
2023-01-27T05:06:52.396Z,9.50
2023-01-27T05:07:52.720Z,8.00
2023-01-27T05:08:52.417Z,8.20
2023-01-27T05:09:52.618Z,8.80
2023-01-27T05:10:52.387Z,8.90
2023-01-27T05:11:52.568Z,7.40
2023-01-27T05:12:52.443Z,11.40
2023-01-27T05:13:52.544Z,10.70
2023-01-27T05:14:52.378Z,10.10
2023-01-27T05:15:52.593Z,10.20
2023-01-27T05:16:52.488Z,8.70
2023-01-27T05:17:52.530Z,10.50
2023-01-27T05:18:52.508Z,11.20
2023-01-27T05:19:52.477Z,9.10
2023-01-27T05:20:52.445Z,10.50
2023-01-27T05:21:52.470Z,11.30
2023-01-27T05:22:52.549Z,7.90
2023-01-27T05:23:52.409Z,11.70
2023-01-27T05:24:52.479Z,9.90
2023-01-27T05:25:52.228Z,8.60
2023-01-27T05:26:52.607Z,9.10
2023-01-27T05:27:52.348Z,10.90
2023-01-27T05:28:52.640Z,8.40
2023-01-27T05:29:52.240Z,11.20
2023-01-27T05:30:52.525Z,10.50
2023-01-27T05:31:52.339Z,10.50
2023-01-27T05:32:52.511Z,12.00
2023-01-27T05:33:52.287Z,11.20
2023-01-27T05:34:52.409Z,9.30
2023-01-27T05:35:52.279Z,11.50
2023-01-27T05:36:52.307Z,11.40
2023-01-27T05:37:52.371Z,12.00
2023-01-27T05:38:52.328Z,10.80
2023-01-27T05:39:52.238Z,11.70
2023-01-27T05:40:52.060Z,8.00
2023-01-27T05:41:52.279Z,8.80
2023-01-27T05:42:52.660Z,10.70
2023-01-27T05:43:52.218Z,7.80
2023-01-27T05:44:52.080Z,10.70
2023-01-27T05:45:52.209Z,9.70
2023-01-27T05:46:52.079Z,8.50
2023-01-27T05:47:52.214Z,14.50
2023-01-27T05:48:52.080Z,9.20
2023-01-27T05:49:52.297Z,8.90
2023-01-27T05:50:52.071Z,10.00
2023-01-27T05:51:52.120Z,11.00
2023-01-27T05:52:53.097Z,9.90
2023-01-27T05:53:52.129Z,13.20
2023-01-27T05:54:52.158Z,10.40
2023-01-27T05:55:51.918Z,11.10
2023-01-27T05:56:52.089Z,13.90
2023-01-27T05:57:51.969Z,11.30
2023-01-27T05:58:52.078Z,10.30
2023-01-27T05:59:52.103Z,16.00
2023-01-27T06:00:52.057Z,9.90
2023-01-27T06:01:51.986Z,12.90
2023-01-27T06:02:52.140Z,7.90
2023-01-27T06:03:52.000Z,12.50
2023-01-27T06:04:52.210Z,14.10
2023-01-27T06:05:51.968Z,15.10
2023-01-27T06:06:51.983Z,10.90
2023-01-27T06:07:51.894Z,16.70
2023-01-27T06:08:52.123Z,21.60
2023-01-27T06:09:52.079Z,14.40
2023-01-27T06:10:52.021Z,14.10
2023-01-27T06:11:52.043Z,13.50
2023-01-27T06:12:51.758Z,11.10
2023-01-27T06:13:52.039Z,11.00
2023-01-27T06:14:51.779Z,12.00
2023-01-27T06:15:51.965Z,12.80
2023-01-27T06:16:51.900Z,13.70
2023-01-27T06:17:52.875Z,12.00
2023-01-27T06:18:51.766Z,11.60
2023-01-27T06:19:51.887Z,9.00
2023-01-27T06:20:51.814Z,12.20
2023-01-27T06:21:52.029Z,16.50
2023-01-27T06:22:51.749Z,13.30
2023-01-27T06:23:51.924Z,16.60
2023-01-27T06:24:51.948Z,10.80
2023-01-27T06:25:51.838Z,14.70
2023-01-27T06:26:51.832Z,12.90
2023-01-27T06:27:52.038Z,10.50
2023-01-27T06:28:51.799Z,13.40
2023-01-27T06:29:51.822Z,11.10
2023-01-27T06:30:51.775Z,16.00
2023-01-27T06:31:51.865Z,22.20
2023-01-27T06:32:51.778Z,22.60
2023-01-27T06:33:51.644Z,18.40
2023-01-27T06:34:51.767Z,22.20
2023-01-27T06:35:51.755Z,20.90
2023-01-27T06:36:51.778Z,17.40
2023-01-27T06:37:51.607Z,16.50
2023-01-27T06:38:51.773Z,14.60
2023-01-27T06:39:51.683Z,16.10
2023-01-27T06:40:51.829Z,11.40
2023-01-27T06:41:51.673Z,11.00
2023-01-27T06:42:52.682Z,12.40
2023-01-27T06:43:52.759Z,10.90
2023-01-27T06:44:51.538Z,12.00
2023-01-27T06:45:52.657Z,9.90
2023-01-27T06:46:51.448Z,12.00
2023-01-27T06:47:51.726Z,11.40
2023-01-27T06:48:51.627Z,13.20
2023-01-27T06:49:51.613Z,8.90
2023-01-27T06:50:51.420Z,15.40
2023-01-27T06:51:51.598Z,11.90
2023-01-27T06:52:51.518Z,10.10
2023-01-27T06:53:51.568Z,14.00
2023-01-27T06:54:51.468Z,11.50
2023-01-27T06:55:51.599Z,11.70
2023-01-27T06:56:51.409Z,9.30
2023-01-27T06:57:51.577Z,17.60
2023-01-27T06:58:51.495Z,12.50
2023-01-27T06:59:51.499Z,17.80
2023-01-27T07:00:51.538Z,12.20
2023-01-27T07:01:51.342Z,14.00
2023-01-27T07:02:51.586Z,18.30
2023-01-27T07:03:51.250Z,13.10
2023-01-27T07:04:51.417Z,10.80
2023-01-27T07:05:51.278Z,15.00
2023-01-27T07:06:51.478Z,12.50
2023-01-27T07:07:51.499Z,8.60
2023-01-27T07:08:53.043Z,13.30
2023-01-27T07:09:52.962Z,11.20
2023-01-27T07:10:51.448Z,10.90
2023-01-27T07:11:51.272Z,15.30
2023-01-27T07:12:51.436Z,15.90
2023-01-27T07:13:51.408Z,14.20
2023-01-27T07:14:51.409Z,13.00
2023-01-27T07:15:51.453Z,15.30
2023-01-27T07:16:51.218Z,18.20
2023-01-27T07:17:51.279Z,21.80
2023-01-27T07:18:51.179Z,25.00
2023-01-27T07:19:51.477Z,19.20
2023-01-27T07:20:51.527Z,27.40
2023-01-27T07:21:51.329Z,17.70
2023-01-27T07:22:51.292Z,14.40
2023-01-27T07:23:51.487Z,14.80
2023-01-27T07:24:51.059Z,12.80
2023-01-27T07:25:51.288Z,12.50
2023-01-27T07:26:51.187Z,14.20
2023-01-27T07:27:51.416Z,13.20
2023-01-27T07:28:51.309Z,11.90
2023-01-27T07:29:51.217Z,15.30
2023-01-27T07:30:51.098Z,14.00
2023-01-27T07:31:51.333Z,21.00
2023-01-27T07:32:51.284Z,18.80
2023-01-27T07:33:50.944Z,21.70
2023-01-27T07:34:51.199Z,19.20
2023-01-27T07:35:50.939Z,20.10
2023-01-27T07:36:51.329Z,25.40
2023-01-27T07:37:50.967Z,25.00
2023-01-27T07:38:51.243Z,24.20
2023-01-27T07:39:51.007Z,18.40
2023-01-27T07:40:51.099Z,19.20
2023-01-27T07:41:51.172Z,14.90
2023-01-27T07:42:51.116Z,16.70
2023-01-27T07:43:52.462Z,14.80
2023-01-27T07:44:51.139Z,12.60
2023-01-27T07:45:51.087Z,12.70
2023-01-27T07:46:51.237Z,9.00
2023-01-27T07:47:50.987Z,11.00
2023-01-27T07:48:50.998Z,10.70
2023-01-27T07:49:50.989Z,8.40
2023-01-27T07:50:50.967Z,14.20
2023-01-27T07:51:51.268Z,8.70
2023-01-27T07:52:50.868Z,17.20
2023-01-27T07:53:50.939Z,12.90
2023-01-27T07:54:50.831Z,10.60
2023-01-27T07:55:51.029Z,13.50
2023-01-27T07:56:50.858Z,11.20
2023-01-27T07:57:51.034Z,12.80
2023-01-27T07:58:50.794Z,10.20
2023-01-27T07:59:50.968Z,11.50
2023-01-27T08:00:50.995Z,11.40
2023-01-27T08:01:50.879Z,11.30
2023-01-27T08:02:50.876Z,12.20
2023-01-27T08:03:50.882Z,12.70
2023-01-27T08:04:53.276Z,14.90
2023-01-27T08:05:50.848Z,11.30
2023-01-27T08:06:50.829Z,11.60
2023-01-27T08:07:50.743Z,12.80
2023-01-27T08:08:51.019Z,29.40
2023-01-27T08:09:50.779Z,24.40
2023-01-27T08:10:51.059Z,17.90
2023-01-27T08:11:50.668Z,14.50
2023-01-27T08:12:50.874Z,13.80
2023-01-27T08:13:50.644Z,11.90
2023-01-27T08:14:50.917Z,8.60
2023-01-27T08:15:50.647Z,13.40
2023-01-27T08:16:50.777Z,18.10
2023-01-27T08:17:50.708Z,11.90
2023-01-27T08:18:50.717Z,13.30
2023-01-27T08:19:50.692Z,14.70
2023-01-27T08:20:50.769Z,15.90
2023-01-27T08:21:50.697Z,14.60
2023-01-27T08:22:50.478Z,16.30
2023-01-27T08:23:50.663Z,16.80
2023-01-27T08:24:50.478Z,10.90
2023-01-27T08:25:50.662Z,15.10
2023-01-27T08:26:50.524Z,14.30
2023-01-27T08:27:50.668Z,15.50
2023-01-27T08:28:50.601Z,13.20
2023-01-27T08:29:50.620Z,16.40
2023-01-27T08:30:50.749Z,15.40
2023-01-27T08:31:50.861Z,17.40
2023-01-27T08:32:50.640Z,12.80
2023-01-27T08:33:50.551Z,13.40
2023-01-27T08:34:50.459Z,16.40
2023-01-27T08:35:50.637Z,16.60
2023-01-27T08:36:50.540Z,12.90
2023-01-27T08:37:50.468Z,10.20
2023-01-27T08:38:50.545Z,17.80
2023-01-27T08:39:50.357Z,22.10
2023-01-27T08:40:50.431Z,16.10
2023-01-27T08:41:50.438Z,19.50
2023-01-27T08:42:50.641Z,19.50
2023-01-27T08:43:50.638Z,16.30
2023-01-27T08:44:50.488Z,18.90
2023-01-27T08:45:50.375Z,13.80
2023-01-27T08:46:50.470Z,14.90
2023-01-27T08:47:50.377Z,23.50
2023-01-27T08:48:50.448Z,19.40
2023-01-27T08:49:50.378Z,15.40
2023-01-27T08:50:50.442Z,13.80
2023-01-27T08:51:50.390Z,20.60
2023-01-27T08:52:50.428Z,16.00
2023-01-27T08:53:50.704Z,21.50
2023-01-27T08:54:50.188Z,19.60
2023-01-27T08:55:50.432Z,17.60
2023-01-27T08:56:50.252Z,15.80
2023-01-27T08:57:50.360Z,18.00
2023-01-27T08:58:50.148Z,16.90
2023-01-27T08:59:50.330Z,18.80
2023-01-27T09:00:50.170Z,15.50
2023-01-27T09:01:50.377Z,10.90
2023-01-27T09:02:50.148Z,14.90
2023-01-27T09:03:50.250Z,12.50
2023-01-27T09:04:50.333Z,19.00
2023-01-27T09:05:50.327Z,13.70
2023-01-27T09:06:50.239Z,12.20
2023-01-27T09:07:50.250Z,14.30
2023-01-27T09:08:50.169Z,16.00
2023-01-27T09:09:56.005Z,12.00
2023-01-27T09:10:50.197Z,17.50
2023-01-27T09:11:50.199Z,13.60
2023-01-27T09:12:50.153Z,12.90
2023-01-27T09:13:50.019Z,17.10
2023-01-27T09:14:50.144Z,12.20
2023-01-27T09:15:50.240Z,16.40
2023-01-27T09:16:50.278Z,13.70
2023-01-27T09:17:50.078Z,16.80
2023-01-27T09:18:50.100Z,11.50
2023-01-27T09:19:50.307Z,14.80
2023-01-27T09:20:50.185Z,12.20
2023-01-27T09:21:51.267Z,17.10
2023-01-27T09:22:50.857Z,16.20
2023-01-27T09:23:50.160Z,15.20
2023-01-27T09:24:50.188Z,14.50
2023-01-27T09:25:50.031Z,8.20
2023-01-27T09:26:49.836Z,15.20
2023-01-27T09:27:50.063Z,15.30
2023-01-27T09:28:49.887Z,15.40
2023-01-27T09:29:50.009Z,16.20
2023-01-27T09:30:49.898Z,13.60
2023-01-27T09:31:50.043Z,14.50
2023-01-27T09:32:49.909Z,13.20
2023-01-27T09:33:49.989Z,15.10
2023-01-27T09:34:49.839Z,19.40
2023-01-27T09:35:49.921Z,12.80
2023-01-27T09:36:49.947Z,15.50
2023-01-27T09:37:50.003Z,14.50
2023-01-27T09:38:49.827Z,16.70
2023-01-27T09:39:50.036Z,14.20
2023-01-27T09:40:49.868Z,15.90
2023-01-27T09:41:49.948Z,14.50
2023-01-27T09:42:49.898Z,14.10
2023-01-27T09:43:49.668Z,16.30
2023-01-27T09:44:49.867Z,13.90
2023-01-27T09:45:49.791Z,16.40
2023-01-27T09:46:49.878Z,19.80
2023-01-27T09:47:49.667Z,20.80
2023-01-27T09:48:49.971Z,15.40
2023-01-27T09:49:49.799Z,15.60
2023-01-27T09:50:49.817Z,11.60
2023-01-27T09:51:49.667Z,15.80
2023-01-27T09:52:49.817Z,13.70
2023-01-27T09:53:49.697Z,16.30
2023-01-27T09:54:49.927Z,15.40
2023-01-27T09:55:49.687Z,15.80
2023-01-27T09:56:49.975Z,16.40
2023-01-27T09:57:49.748Z,14.40
2023-01-27T09:58:49.559Z,15.00
2023-01-27T09:59:49.738Z,14.70
2023-01-27T10:00:49.639Z,13.30
2023-01-27T10:01:49.888Z,15.90
2023-01-27T10:02:49.623Z,13.70
2023-01-27T10:03:49.678Z,15.20
2023-01-27T10:04:49.578Z,15.70
2023-01-27T10:05:49.628Z,25.10
2023-01-27T10:06:49.557Z,23.00
2023-01-27T10:07:49.616Z,20.80
2023-01-27T10:08:49.529Z,18.10
2023-01-27T10:09:49.738Z,11.70
2023-01-27T10:10:49.687Z,16.40
2023-01-27T10:11:49.588Z,23.20
2023-01-27T10:12:49.548Z,26.60
2023-01-27T10:13:49.794Z,22.40
2023-01-27T10:14:49.517Z,21.80
2023-01-27T10:15:49.332Z,24.40
2023-01-27T10:16:49.569Z,20.10
2023-01-27T10:17:49.375Z,27.20
2023-01-27T10:18:49.557Z,23.10
2023-01-27T10:19:49.507Z,20.70
2023-01-27T10:20:49.511Z,36.60
2023-01-27T10:21:49.479Z,30.30
2023-01-27T10:22:49.487Z,35.50
2023-01-27T10:23:48.709Z,34.90
2023-01-27T10:24:49.560Z,29.60
2023-01-27T10:25:49.413Z,31.20
2023-01-27T10:26:49.516Z,25.30
2023-01-27T10:27:49.338Z,26.80
2023-01-27T10:28:49.481Z,19.60
2023-01-27T10:29:49.397Z,15.60
2023-01-27T10:30:49.267Z,24.10
2023-01-27T10:31:49.443Z,21.50
2023-01-27T10:32:49.252Z,24.80
2023-01-27T10:33:49.346Z,14.60
2023-01-27T10:34:49.242Z,20.60
2023-01-27T10:35:49.436Z,21.10
2023-01-27T10:36:49.237Z,20.20
2023-01-27T10:37:49.316Z,14.00
2023-01-27T10:38:49.207Z,15.20
2023-01-27T10:39:49.343Z,18.90
2023-01-27T10:40:49.397Z,16.10
2023-01-27T10:41:49.317Z,23.50
2023-01-27T10:42:49.315Z,18.90
2023-01-27T10:43:50.239Z,19.60
2023-01-27T10:44:49.229Z,39.10
2023-01-27T10:45:49.545Z,29.70
2023-01-27T10:46:49.263Z,28.20
2023-01-27T10:47:49.082Z,25.80
2023-01-27T10:48:49.261Z,23.50
2023-01-27T10:49:49.020Z,20.40
2023-01-27T10:50:49.302Z,23.20
2023-01-27T10:51:49.028Z,24.50
2023-01-27T10:52:49.207Z,16.90
2023-01-27T10:53:49.068Z,13.80
2023-01-27T10:54:48.349Z,15.60
2023-01-27T10:55:49.073Z,21.00
2023-01-27T10:56:49.157Z,21.70
2023-01-27T10:57:49.067Z,15.60
2023-01-27T10:58:49.123Z,14.50
2023-01-27T11:00:10.887Z,15.50
2023-01-27T11:01:20.525Z,18.30
2023-01-27T11:01:49.717Z,13.20
2023-01-27T11:02:48.891Z,14.00
2023-01-27T11:03:49.167Z,14.10
2023-01-27T11:04:48.901Z,19.10
2023-01-27T11:05:49.049Z,15.30
2023-01-27T11:06:48.915Z,14.50
2023-01-27T11:07:49.067Z,15.70
2023-01-27T11:08:48.219Z,15.20
2023-01-27T11:09:49.048Z,19.70
2023-01-27T11:10:49.011Z,16.80
2023-01-27T11:11:49.038Z,13.50
2023-01-27T11:12:48.952Z,14.70
2023-01-27T11:13:49.002Z,12.30
2023-01-27T11:14:48.888Z,18.20
2023-01-27T11:15:48.939Z,14.70
2023-01-27T11:16:49.056Z,13.80
2023-01-27T11:17:48.711Z,17.30
2023-01-27T11:18:48.859Z,14.40
2023-01-27T11:19:48.718Z,14.30
2023-01-27T11:20:48.920Z,14.10
2023-01-27T11:21:55.497Z,11.70
2023-01-27T11:22:48.860Z,12.20
2023-01-27T11:23:48.771Z,13.40
2023-01-27T11:24:48.935Z,15.50
2023-01-27T11:25:48.810Z,13.00
2023-01-27T11:26:49.010Z,12.80
2023-01-27T11:27:48.781Z,14.30
2023-01-27T11:28:48.827Z,12.40
2023-01-27T11:29:48.839Z,15.30
2023-01-27T11:30:48.846Z,16.60
2023-01-27T11:31:48.861Z,12.20
2023-01-27T11:32:48.807Z,13.50
2023-01-27T11:33:48.761Z,14.00
2023-01-27T11:34:48.538Z,13.10
2023-01-27T11:35:48.697Z,11.30
2023-01-27T11:36:50.013Z,16.10
2023-01-27T11:37:48.744Z,15.00
2023-01-27T11:38:49.090Z,18.10
2023-01-27T11:39:48.728Z,15.00
2023-01-27T11:40:48.576Z,15.00
2023-01-27T11:41:48.690Z,15.80
2023-01-27T11:42:50.101Z,16.10
2023-01-27T11:43:48.713Z,13.00
2023-01-27T11:44:48.508Z,15.40
2023-01-27T11:45:48.713Z,18.10
2023-01-27T11:46:48.588Z,13.50
2023-01-27T11:47:48.736Z,12.60
2023-01-27T11:48:49.139Z,19.80
2023-01-27T11:49:48.387Z,15.50
2023-01-27T11:50:48.554Z,19.60
2023-01-27T11:51:48.428Z,11.70
2023-01-27T11:52:48.583Z,16.30
2023-01-27T11:53:48.390Z,14.50
2023-01-27T11:54:48.540Z,17.10
2023-01-27T11:55:48.400Z,17.70
2023-01-27T11:56:48.989Z,15.60
2023-01-27T11:57:48.479Z,16.90
2023-01-27T11:58:48.511Z,13.40
2023-01-27T11:59:48.519Z,20.80
2023-01-27T12:00:48.463Z,11.70
2023-01-27T12:01:48.549Z,13.20
2023-01-27T12:02:48.504Z,13.70
2023-01-27T12:03:48.424Z,16.10
2023-01-27T12:04:48.490Z,19.20
2023-01-27T12:05:48.352Z,12.30
2023-01-27T12:06:48.251Z,13.80
2023-01-27T12:07:48.540Z,15.40
2023-01-27T12:08:48.239Z,16.20
2023-01-27T12:09:48.554Z,18.00
2023-01-27T12:10:48.272Z,11.10
2023-01-27T12:11:48.429Z,16.60
2023-01-27T12:12:48.249Z,15.00
2023-01-27T12:13:48.500Z,11.60
2023-01-27T12:14:48.229Z,11.60
2023-01-27T12:15:48.392Z,14.20
2023-01-27T12:16:48.352Z,15.20
2023-01-27T12:17:48.536Z,14.50
2023-01-27T12:18:48.289Z,10.40
2023-01-27T12:19:48.279Z,12.60
2023-01-27T12:20:48.232Z,13.50
2023-01-27T12:21:48.091Z,12.60
2023-01-27T12:22:48.326Z,14.20
2023-01-27T12:23:48.470Z,10.80
2023-01-27T12:24:48.283Z,13.10
2023-01-27T12:25:50.612Z,16.40
2023-01-27T12:26:48.272Z,13.10
2023-01-27T12:27:48.058Z,11.50
2023-01-27T12:28:48.841Z,10.30
2023-01-27T12:29:48.156Z,11.80
2023-01-27T12:30:48.262Z,11.90
2023-01-27T12:31:48.099Z,10.70
2023-01-27T12:32:48.188Z,11.10
2023-01-27T12:33:48.240Z,19.10
2023-01-27T12:34:48.179Z,18.10
2023-01-27T12:35:48.053Z,16.10
2023-01-27T12:36:47.880Z,17.80
2023-01-27T12:37:48.099Z,13.80
2023-01-27T12:38:48.320Z,14.10
2023-01-27T12:39:48.174Z,12.40
2023-01-27T12:40:48.000Z,13.10
2023-01-27T12:41:48.128Z,13.80
2023-01-27T12:42:47.925Z,11.90
2023-01-27T12:43:48.078Z,14.20
2023-01-27T12:44:48.012Z,13.10
2023-01-27T12:45:48.428Z,13.20
2023-01-27T12:46:48.155Z,15.30
2023-01-27T12:47:48.159Z,10.90
2023-01-27T12:48:47.908Z,16.30
2023-01-27T12:49:48.070Z,15.50
2023-01-27T12:50:47.979Z,12.30
2023-01-27T12:51:48.335Z,16.70
2023-01-27T12:52:48.854Z,15.30
2023-01-27T12:53:47.806Z,16.20
2023-01-27T12:54:47.879Z,17.90
2023-01-27T12:55:47.940Z,11.80
2023-01-27T12:56:48.071Z,14.70
2023-01-27T12:57:47.739Z,26.60
2023-01-27T12:58:47.879Z,19.10
2023-01-27T12:59:47.839Z,19.80
2023-01-27T13:00:47.957Z,18.50
2023-01-27T13:01:47.736Z,21.70
2023-01-27T13:02:47.854Z,21.30